Terminal Aerodrome Forecast
Issued by NWS Newport/Morehead City, NC

Home | Current Version | Previous Version | Graphics & Text | Print | Product List | Glossary On
Versions: 1 2 3 4 5 6 7 8 9 10 11 12 13 14 15 16 17 18 19 20 21 22 23 24
000
FTUS42 KMHX 011721
TAFEWN
TAF
KEWN 011721Z 0118/0218 32005KT P6SM SCT050
     FM020000 VRB02KT P6SM SCT250
     FM020900 00000KT 3SM BR SCT250
     FM021300 04005KT P6SM SKC=

USA.gov is the U.S. government's official web portal to all federal, state and local government web resources and services.